createdAt,value
2022-10-13T00:00:49.832Z,40.47
2022-10-13T00:03:17.375Z,37.60
2022-10-13T00:05:46.289Z,37.40
2022-10-13T00:08:14.193Z,37.78
2022-10-13T00:10:46.327Z,38.35
2022-10-13T00:13:13.738Z,41.05
2022-10-13T00:15:41.781Z,41.17
2022-10-13T00:18:09.165Z,42.13
2022-10-13T00:20:37.214Z,46.22
2022-10-13T00:23:04.339Z,45.42
2022-10-13T00:25:31.701Z,43.30
2022-10-13T00:27:58.855Z,46.88
2022-10-13T00:30:36.422Z,45.92
2022-10-13T00:33:03.710Z,44.97
2022-10-13T00:35:30.879Z,44.72
2022-10-13T00:37:58.086Z,42.13
2022-10-13T00:40:28.481Z,48.75
2022-10-13T00:42:55.608Z,44.53
2022-10-13T00:45:31.918Z,39.40
2022-10-13T00:48:00.555Z,43.22
2022-10-13T00:50:35.992Z,43.75
2022-10-13T00:53:05.797Z,41.40
2022-10-13T00:55:34.929Z,39.80
2022-10-13T00:58:05.416Z,37.92
2022-10-13T01:00:33.232Z,44.75
2022-10-13T01:03:01.386Z,37.20
2022-10-13T01:05:28.587Z,39.45
2022-10-13T01:07:55.791Z,37.47
2022-10-13T01:10:51.513Z,39.10
2022-10-13T01:13:27.679Z,39.20
2022-10-13T01:16:00.818Z,35.40
2022-10-13T01:18:36.907Z,34.58
2022-10-13T01:21:06.956Z,34.92
2022-10-13T01:24:03.453Z,37.30
2022-10-13T01:26:59.407Z,34.72
2022-10-13T01:30:10.628Z,36.90
2022-10-13T01:32:43.788Z,35.83
2022-10-13T01:35:45.447Z,39.03
2022-10-13T01:38:30.738Z,34.60
2022-10-13T01:41:02.638Z,34.35
2022-10-13T01:44:16.238Z,37.03
2022-10-13T01:46:50.339Z,35.35
2022-10-13T01:49:18.979Z,34.20
2022-10-13T01:51:46.115Z,34.05
2022-10-13T01:54:13.310Z,33.10
2022-10-13T01:56:40.643Z,33.45
2022-10-13T01:59:10.410Z,32.58
2022-10-13T02:01:55.563Z,32.60
2022-10-13T02:04:37.749Z,27.98
2022-10-13T02:07:18.162Z,36.58
2022-10-13T02:10:05.847Z,32.85
2022-10-13T02:12:37.414Z,33.35
2022-10-13T02:15:05.056Z,35.42
2022-10-13T02:17:32.542Z,30.40
2022-10-13T02:19:59.747Z,30.42
2022-10-13T02:22:29.627Z,33.72
2022-10-13T02:24:59.671Z,30.15
2022-10-13T02:27:28.116Z,29.95
2022-10-13T02:29:56.749Z,34.67
2022-10-13T02:32:29.369Z,41.13
2022-10-13T02:34:56.638Z,35.17
2022-10-13T02:37:25.650Z,38.33
2022-10-13T02:39:52.931Z,35.97
2022-10-13T02:42:20.453Z,33.28
2022-10-13T02:44:47.852Z,40.80
2022-10-13T02:47:15.119Z,35.85
2022-10-13T02:49:42.349Z,36.03
2022-10-13T02:52:09.563Z,35.53
2022-10-13T02:54:42.716Z,35.08
2022-10-13T02:57:09.909Z,40.28
2022-10-13T02:59:37.108Z,36.35
2022-10-13T03:02:04.351Z,35.70
2022-10-13T03:04:32.440Z,37.85
2022-10-13T03:06:59.670Z,39.03
2022-10-13T03:09:26.913Z,41.95
2022-10-13T03:11:54.158Z,41.22
2022-10-13T03:14:21.364Z,36.72
2022-10-13T03:16:48.560Z,31.90
2022-10-13T03:19:16.324Z,36.05
2022-10-13T03:21:43.550Z,27.90
2022-10-13T03:24:10.789Z,30.38
2022-10-13T03:26:38.001Z,31.27
2022-10-13T03:29:05.202Z,31.92
2022-10-13T03:31:32.388Z,28.65
2022-10-13T03:34:03.009Z,25.17
2022-10-13T03:36:30.204Z,23.73
2022-10-13T03:38:57.402Z,27.63
2022-10-13T03:41:24.886Z,24.90
2022-10-13T03:43:52.098Z,24.33
2022-10-13T03:46:19.387Z,21.40
2022-10-13T03:48:47.500Z,23.17
2022-10-13T03:51:16.679Z,20.58
2022-10-13T03:53:49.685Z,21.20
2022-10-13T03:56:18.762Z,18.55
2022-10-13T03:58:54.348Z,18.73
2022-10-13T04:01:22.636Z,17.27
2022-10-13T04:03:50.587Z,18.52
2022-10-13T04:06:17.818Z,17.65
2022-10-13T04:08:45.047Z,15.73
2022-10-13T04:11:13.232Z,15.63
2022-10-13T04:13:42.165Z,19.17
2022-10-13T04:16:13.102Z,18.48
2022-10-13T04:18:44.475Z,17.52
2022-10-13T04:21:14.201Z,16.80
2022-10-13T04:23:41.544Z,17.70
2022-10-13T04:26:15.006Z,19.25
2022-10-13T04:28:42.226Z,17.88
2022-10-13T04:31:09.430Z,19.90
2022-10-13T04:33:36.620Z,20.00
2022-10-13T04:36:08.413Z,18.88
2022-10-13T04:38:35.640Z,21.02
2022-10-13T04:41:06.336Z,20.65
2022-10-13T04:43:33.784Z,21.17
2022-10-13T04:46:06.449Z,22.98
2022-10-13T04:48:33.685Z,24.48
2022-10-13T04:51:08.970Z,25.13
2022-10-13T04:53:36.781Z,26.25
2022-10-13T04:56:14.743Z,22.88
2022-10-13T04:58:43.231Z,23.23
2022-10-13T05:01:21.114Z,29.83
2022-10-13T05:03:57.160Z,27.02
2022-10-13T05:06:29.397Z,28.73
2022-10-13T05:08:59.314Z,28.63
2022-10-13T05:11:27.331Z,28.40
2022-10-13T05:13:55.351Z,39.72
2022-10-13T05:16:23.234Z,32.45
2022-10-13T05:18:51.290Z,31.30
2022-10-13T05:21:20.612Z,30.05
2022-10-13T05:23:48.146Z,30.83
2022-10-13T05:26:16.940Z,37.08
2022-10-13T05:28:44.490Z,34.55
2022-10-13T05:31:20.092Z,34.83
2022-10-13T05:33:48.057Z,32.90
2022-10-13T05:36:24.990Z,32.83
2022-10-13T05:38:53.729Z,50.10
2022-10-13T05:41:21.328Z,37.35
2022-10-13T05:43:48.841Z,33.83
2022-10-13T05:46:19.204Z,41.88
2022-10-13T05:48:58.608Z,43.40
2022-10-13T05:51:41.109Z,40.55
2022-10-13T05:54:20.339Z,37.92
2022-10-13T05:56:56.184Z,50.45
2022-10-13T05:59:29.019Z,46.33
2022-10-13T06:01:59.235Z,45.85
2022-10-13T06:04:39.622Z,44.92
2022-10-13T06:07:18.212Z,47.80
2022-10-13T06:09:51.710Z,49.50
2022-10-13T06:12:22.055Z,43.08
2022-10-13T06:14:55.263Z,45.88
2022-10-13T06:17:28.244Z,48.10
2022-10-13T06:20:04.511Z,43.88
2022-10-13T06:22:35.375Z,45.15
2022-10-13T06:25:04.747Z,46.72
2022-10-13T06:27:35.181Z,47.30
2022-10-13T06:30:03.805Z,57.95
2022-10-13T06:32:31.519Z,45.63
2022-10-13T06:35:10.906Z,48.25
2022-10-13T06:37:43.841Z,46.03
2022-10-13T06:40:13.982Z,43.05
2022-10-13T06:42:44.277Z,49.92
2022-10-13T06:45:12.106Z,58.70
2022-10-13T06:47:41.232Z,47.63
2022-10-13T06:50:09.136Z,54.92
2022-10-13T06:52:36.793Z,49.90
2022-10-13T06:55:09.782Z,53.75
2022-10-13T06:57:44.214Z,50.97
2022-10-13T07:00:12.312Z,46.95
2022-10-13T07:02:40.099Z,49.92
2022-10-13T07:05:08.271Z,63.88
2022-10-13T07:07:36.049Z,54.50
2022-10-13T07:10:03.931Z,74.32
2022-10-13T07:12:31.458Z,58.90
2022-10-13T07:14:59.350Z,62.13
2022-10-13T07:17:30.137Z,58.22
2022-10-13T07:19:58.085Z,59.40
2022-10-13T07:22:27.584Z,51.25
2022-10-13T07:24:55.134Z,61.75
2022-10-13T07:27:25.079Z,53.40
2022-10-13T07:29:52.753Z,48.58
2022-10-13T07:32:20.291Z,51.15
2022-10-13T07:34:47.696Z,55.83
2022-10-13T07:37:15.301Z,48.70
2022-10-13T07:39:42.896Z,53.92
2022-10-13T07:42:10.231Z,59.83
2022-10-13T07:44:37.788Z,54.75
2022-10-13T07:47:05.497Z,53.35
2022-10-13T07:49:32.965Z,54.85
2022-10-13T07:52:04.703Z,54.40
2022-10-13T07:54:32.080Z,47.55
2022-10-13T07:56:59.363Z,52.72
2022-10-13T07:59:31.838Z,54.45
2022-10-13T08:02:00.676Z,63.92
2022-10-13T08:04:31.978Z,55.00
2022-10-13T08:06:59.540Z,54.80
2022-10-13T08:09:27.023Z,50.05
2022-10-13T08:11:58.889Z,49.42
2022-10-13T08:14:28.077Z,48.47
2022-10-13T08:16:58.484Z,51.05
2022-10-13T08:19:26.633Z,47.45
2022-10-13T08:21:59.272Z,44.00
2022-10-13T08:24:32.070Z,41.70
2022-10-13T08:26:59.635Z,44.42
2022-10-13T08:29:26.925Z,48.65
2022-10-13T08:31:54.472Z,46.35
2022-10-13T08:34:25.091Z,43.40
2022-10-13T08:36:54.305Z,47.63
2022-10-13T08:39:22.928Z,39.80
2022-10-13T08:41:50.516Z,47.58
2022-10-13T08:45:02.628Z,42.20
2022-10-13T08:47:21.609Z,40.65
2022-10-13T08:49:48.793Z,35.05
2022-10-13T08:52:24.552Z,41.90
2022-10-13T08:54:52.145Z,40.58
2022-10-13T08:57:20.869Z,41.80
2022-10-13T08:59:48.703Z,39.50
2022-10-13T09:02:29.906Z,37.13
2022-10-13T09:04:57.426Z,31.95
2022-10-13T09:07:26.389Z,43.45
2022-10-13T09:09:53.931Z,30.30
2022-10-13T09:12:26.695Z,31.17
2022-10-13T09:15:09.723Z,33.25
2022-10-13T09:17:38.293Z,28.35
2022-10-13T09:20:07.249Z,29.17
2022-10-13T09:22:35.641Z,24.98
2022-10-13T09:25:11.852Z,25.92
2022-10-13T09:27:58.183Z,29.40
2022-10-13T09:30:46.871Z,22.08
2022-10-13T09:33:24.115Z,23.25
2022-10-13T09:36:00.374Z,22.73
2022-10-13T09:38:27.995Z,33.08
2022-10-13T09:40:58.757Z,26.83
2022-10-13T09:43:30.415Z,23.75
2022-10-13T09:45:58.191Z,23.35
2022-10-13T09:48:34.865Z,24.00
2022-10-13T09:51:02.792Z,20.95
2022-10-13T09:53:37.695Z,21.00
2022-10-13T09:56:10.099Z,19.95
2022-10-13T10:01:22.315Z,16.52
2022-10-13T10:03:49.991Z,18.48
2022-10-13T10:06:18.698Z,28.77
2022-10-13T10:09:11.371Z,22.65
2022-10-13T10:11:42.706Z,24.30
2022-10-13T10:14:24.746Z,20.23
2022-10-13T10:16:55.071Z,22.48
2022-10-13T10:19:30.615Z,16.80
2022-10-13T10:22:07.397Z,18.40
2022-10-13T10:24:49.437Z,20.65
2022-10-13T10:29:52.334Z,20.98
2022-10-13T10:32:28.431Z,23.83
2022-10-13T10:35:12.030Z,19.35
2022-10-13T10:38:04.141Z,26.15
2022-10-13T10:40:34.703Z,19.88
2022-10-13T10:43:07.897Z,24.52
2022-10-13T10:45:37.752Z,21.90
2022-10-13T10:48:20.181Z,25.90
2022-10-13T10:50:47.532Z,19.13
2022-10-13T10:53:37.815Z,18.67
2022-10-13T10:56:06.023Z,24.08
2022-10-13T10:58:41.939Z,19.35
2022-10-13T11:01:12.296Z,21.58
2022-10-13T11:03:43.150Z,22.67
2022-10-13T11:06:16.255Z,19.83
2022-10-13T11:08:44.958Z,23.50
2022-10-13T11:11:29.305Z,16.58
2022-10-13T11:14:07.764Z,26.98
2022-10-13T11:16:39.442Z,19.02
2022-10-13T11:19:30.122Z,21.77
2022-10-13T11:21:57.740Z,21.55
2022-10-13T11:24:48.565Z,15.77
2022-10-13T11:27:15.772Z,19.70
2022-10-13T11:29:45.925Z,18.25
2022-10-13T11:32:25.798Z,16.92
2022-10-13T11:35:14.174Z,20.58
2022-10-13T11:38:09.257Z,21.88
2022-10-13T11:41:05.531Z,31.83
2022-10-13T11:43:46.066Z,20.25
2022-10-13T11:46:25.220Z,18.35
2022-10-13T11:49:13.763Z,20.88
2022-10-13T11:52:03.092Z,20.08
2022-10-13T11:54:43.453Z,17.40
2022-10-13T11:57:21.488Z,17.40
2022-10-13T11:59:49.859Z,16.98
2022-10-13T12:02:19.386Z,14.60
2022-10-13T12:05:20.421Z,17.95
2022-10-13T12:07:48.173Z,14.85
2022-10-13T12:10:21.112Z,28.67
2022-10-13T12:12:48.803Z,22.80
2022-10-13T12:15:42.527Z,17.17
2022-10-13T12:18:36.518Z,17.60
2022-10-13T12:21:11.144Z,20.20
2022-10-13T12:23:38.405Z,17.67
2022-10-13T12:26:05.699Z,19.13
2022-10-13T12:28:56.203Z,17.55
2022-10-13T12:31:44.055Z,18.25
2022-10-13T12:34:18.199Z,22.10
2022-10-13T12:36:46.265Z,26.50
2022-10-13T12:39:14.232Z,18.15
2022-10-13T12:41:43.510Z,19.65
2022-10-13T12:44:22.899Z,19.25
2022-10-13T12:46:56.006Z,15.60
2022-10-13T12:49:27.697Z,16.58
2022-10-13T12:52:26.006Z,21.85
2022-10-13T12:54:57.702Z,14.88
2022-10-13T12:57:38.325Z,21.75
2022-10-13T13:00:18.618Z,15.98
2022-10-13T13:02:59.800Z,26.88
2022-10-13T13:05:39.666Z,15.70
2022-10-13T13:08:30.277Z,20.40
2022-10-13T13:11:01.343Z,15.23
2022-10-13T13:13:28.602Z,12.68
2022-10-13T13:16:23.435Z,16.30
2022-10-13T13:18:50.971Z,16.73
2022-10-13T13:21:19.634Z,17.65
2022-10-13T13:23:52.803Z,16.13
2022-10-13T13:26:22.713Z,15.57
2022-10-13T13:28:54.572Z,23.65
2022-10-13T13:31:23.571Z,18.95
2022-10-13T13:33:51.283Z,18.00
2022-10-13T13:36:20.259Z,15.60
2022-10-13T13:38:52.441Z,17.45
2022-10-13T13:41:19.814Z,16.67
2022-10-13T13:43:47.039Z,17.75
2022-10-13T13:46:21.751Z,11.90
2022-10-13T13:48:48.979Z,16.88
2022-10-13T13:51:16.816Z,14.70
2022-10-13T13:53:45.498Z,14.95
2022-10-13T13:56:17.509Z,13.02
2022-10-13T13:58:44.790Z,20.50
2022-10-13T14:01:12.874Z,19.50
2022-10-13T14:03:40.075Z,29.15
2022-10-13T14:06:08.856Z,18.70
2022-10-13T14:08:43.367Z,15.57
2022-10-13T14:11:10.777Z,16.05
2022-10-13T14:13:37.990Z,20.27
2022-10-13T14:16:05.445Z,16.13
2022-10-13T14:18:32.666Z,29.77
2022-10-13T14:20:59.885Z,18.48
2022-10-13T14:23:27.043Z,18.13
2022-10-13T14:25:54.190Z,20.42
2022-10-13T14:28:23.018Z,23.42
2022-10-13T14:30:50.242Z,19.30
2022-10-13T14:33:19.524Z,13.30
2022-10-13T14:35:46.983Z,19.20
2022-10-13T14:38:16.681Z,18.52
2022-10-13T14:40:44.815Z,16.50
2022-10-13T14:43:11.945Z,15.20
2022-10-13T14:45:39.146Z,18.25
2022-10-13T14:48:06.298Z,14.98
2022-10-13T14:50:34.443Z,13.25
2022-10-13T14:53:01.662Z,22.02
2022-10-13T14:55:30.860Z,17.55
2022-10-13T14:57:58.062Z,18.23
2022-10-13T15:00:25.494Z,13.73
2022-10-13T15:02:52.663Z,22.60
2022-10-13T15:05:20.347Z,40.00
2022-10-13T15:07:47.517Z,31.02
2022-10-13T15:10:14.706Z,35.33
2022-10-13T15:12:41.906Z,18.08
2022-10-13T15:15:10.285Z,21.85
2022-10-13T15:17:37.456Z,16.55
2022-10-13T15:20:05.601Z,30.25
2022-10-13T15:22:32.742Z,23.15
2022-10-13T15:24:59.896Z,17.63
2022-10-13T15:27:27.042Z,16.98
2022-10-13T15:29:54.205Z,17.75
2022-10-13T15:32:21.705Z,18.48
2022-10-13T15:34:51.786Z,19.73
2022-10-13T15:37:18.951Z,12.57
2022-10-13T15:39:46.187Z,13.25
2022-10-13T15:42:13.397Z,18.13
2022-10-13T15:45:04.562Z,15.98
2022-10-13T15:47:27.699Z,20.20
2022-10-13T15:49:55.054Z,19.85
2022-10-13T15:52:22.514Z,15.30
2022-10-13T15:54:51.411Z,19.48
2022-10-13T15:57:18.565Z,14.25
2022-10-13T15:59:45.738Z,14.85
2022-10-13T16:02:12.882Z,17.40
2022-10-13T16:04:40.177Z,15.45
2022-10-13T16:07:07.306Z,15.52
2022-10-13T16:09:34.448Z,15.30
2022-10-13T16:12:01.767Z,12.48
2022-10-13T16:14:29.002Z,15.30
2022-10-13T16:16:58.071Z,13.15
2022-10-13T16:19:25.249Z,18.08
2022-10-13T16:21:52.803Z,13.30
2022-10-13T16:24:20.041Z,19.30
2022-10-13T16:26:47.198Z,15.05
2022-10-13T16:29:14.370Z,17.90
2022-10-13T16:31:41.514Z,15.98
2022-10-13T16:34:08.678Z,16.75
2022-10-13T16:36:35.811Z,13.93
2022-10-13T16:39:02.962Z,14.43
2022-10-13T16:41:30.115Z,16.42
2022-10-13T16:43:57.394Z,15.95
2022-10-13T16:46:24.578Z,14.23
2022-10-13T16:48:51.752Z,14.15
2022-10-13T16:51:23.267Z,20.27
2022-10-13T16:53:51.547Z,10.63
2022-10-13T16:56:22.060Z,20.63
2022-10-13T16:58:53.224Z,14.65
2022-10-13T17:01:20.587Z,15.38
2022-10-13T17:03:48.054Z,16.30
2022-10-13T17:06:15.264Z,16.27
2022-10-13T17:08:42.857Z,20.73
2022-10-13T17:11:18.008Z,15.18
2022-10-13T17:13:45.138Z,15.20
2022-10-13T17:16:12.380Z,13.02
2022-10-13T17:18:42.853Z,17.23
2022-10-13T17:21:10.407Z,17.98
2022-10-13T17:23:37.567Z,17.30
2022-10-13T17:26:12.114Z,16.13
2022-10-13T17:28:39.482Z,17.08
2022-10-13T17:31:12.278Z,23.77
2022-10-13T17:33:40.252Z,18.65
2022-10-13T17:36:18.091Z,17.42
2022-10-13T17:38:45.539Z,10.98
2022-10-13T17:41:12.814Z,16.98
2022-10-13T17:43:49.722Z,16.80
2022-10-13T17:46:37.309Z,18.85
2022-10-13T17:49:05.509Z,20.35
2022-10-13T17:51:32.670Z,21.20
2022-10-13T17:54:00.157Z,20.10
2022-10-13T17:56:27.684Z,18.13
2022-10-13T17:58:55.055Z,18.20
2022-10-13T18:01:30.009Z,14.05
2022-10-13T18:04:02.391Z,13.55
2022-10-13T18:06:36.798Z,16.92
2022-10-13T18:09:08.782Z,18.98
2022-10-13T18:11:36.171Z,11.77
2022-10-13T18:14:03.498Z,17.25
2022-10-13T18:16:30.793Z,19.80
2022-10-13T18:18:57.975Z,15.57
2022-10-13T18:21:29.162Z,12.90
2022-10-13T18:23:57.370Z,18.55
2022-10-13T18:26:24.798Z,16.00
2022-10-13T18:28:52.229Z,14.80
2022-10-13T18:31:23.472Z,14.65
2022-10-13T18:33:51.711Z,14.55
2022-10-13T18:36:31.804Z,17.05
2022-10-13T18:39:10.932Z,18.05
2022-10-13T18:41:39.534Z,14.30
2022-10-13T18:44:07.005Z,18.85
2022-10-13T18:46:34.755Z,15.30
2022-10-13T18:49:02.662Z,21.10
2022-10-13T18:51:35.662Z,18.38
2022-10-13T18:54:03.729Z,24.37
2022-10-13T18:56:31.123Z,20.58
2022-10-13T18:59:00.343Z,19.92
2022-10-13T19:01:28.938Z,23.30
2022-10-13T19:03:56.074Z,17.55
2022-10-13T19:06:27.036Z,20.73
2022-10-13T19:09:03.382Z,14.93
2022-10-13T19:11:30.644Z,20.02
2022-10-13T19:13:58.289Z,20.73
2022-10-13T19:16:26.238Z,15.05
2022-10-13T19:18:53.459Z,21.23
2022-10-13T19:21:21.028Z,19.17
2022-10-13T19:23:48.301Z,19.42
2022-10-13T19:26:26.112Z,20.10
2022-10-13T19:29:04.642Z,25.80
2022-10-13T19:31:32.032Z,21.33
2022-10-13T19:33:59.398Z,20.60
2022-10-13T19:36:33.718Z,20.50
2022-10-13T19:41:29.323Z,16.98
2022-10-13T19:43:56.545Z,16.05
2022-10-13T19:46:24.769Z,19.55
2022-10-13T19:48:51.959Z,19.98
2022-10-13T19:51:19.118Z,23.83
2022-10-13T19:53:46.298Z,20.83
2022-10-13T19:56:24.669Z,20.02
2022-10-13T19:58:52.101Z,16.40
2022-10-13T20:01:20.972Z,24.88
2022-10-13T20:03:48.298Z,19.60
2022-10-13T20:06:15.767Z,16.65
2022-10-13T20:08:43.091Z,20.60
2022-10-13T20:11:11.315Z,20.10
2022-10-13T20:13:38.489Z,20.25
2022-10-13T20:16:07.256Z,16.65
2022-10-13T20:18:34.759Z,23.17
2022-10-13T20:21:05.942Z,18.90
2022-10-13T20:23:33.253Z,18.20
2022-10-13T20:26:08.156Z,21.30
2022-10-13T20:28:40.474Z,28.20
2022-10-13T20:31:12.602Z,17.50
2022-10-13T20:33:40.197Z,24.13
2022-10-13T20:36:10.352Z,23.38
2022-10-13T20:38:37.578Z,21.25
2022-10-13T20:41:06.544Z,22.58
2022-10-13T20:43:34.171Z,17.98
2022-10-13T20:46:02.223Z,17.88
2022-10-13T20:48:57.725Z,19.25
2022-10-13T20:51:22.075Z,18.02
2022-10-13T20:53:49.459Z,21.88
2022-10-13T20:56:18.665Z,22.10
2022-10-13T20:58:45.858Z,14.98
2022-10-13T21:01:13.343Z,22.98
2022-10-13T21:03:40.584Z,21.10
2022-10-13T21:06:10.367Z,20.42
2022-10-13T21:08:37.740Z,14.68
2022-10-13T21:11:11.787Z,18.85
2022-10-13T21:13:39.590Z,15.98
2022-10-13T21:16:08.307Z,18.98
2022-10-13T21:18:35.555Z,23.52
2022-10-13T21:21:07.364Z,15.80
2022-10-13T21:23:34.591Z,13.50
2022-10-13T21:26:05.583Z,15.02
2022-10-13T21:28:33.051Z,17.70
2022-10-13T21:31:00.967Z,20.23
2022-10-13T21:33:28.538Z,14.90
2022-10-13T21:35:58.022Z,16.25
2022-10-13T21:38:25.320Z,12.93
2022-10-13T21:40:54.042Z,15.55
2022-10-13T21:43:21.535Z,16.42
2022-10-13T21:45:48.675Z,17.40
2022-10-13T21:48:17.133Z,13.65
2022-10-13T21:50:44.291Z,18.85
2022-10-13T21:53:11.479Z,15.80
2022-10-13T21:55:38.630Z,14.23
2022-10-13T21:58:05.831Z,15.52
2022-10-13T22:00:33.082Z,17.67
2022-10-13T22:03:00.255Z,23.77
2022-10-13T22:05:27.399Z,14.63
2022-10-13T22:07:57.542Z,18.67
2022-10-13T22:10:24.679Z,18.15
2022-10-13T22:12:51.822Z,18.10
2022-10-13T22:15:18.997Z,29.80
2022-10-13T22:17:46.157Z,18.45
2022-10-13T22:20:13.311Z,36.75
2022-10-13T22:22:40.565Z,28.63
